Portal, Georgia
Current Conditions -  °F | °C
As of 11:15 AM on Friday 24 Oct 2014 (Local Time) from KJYL Reporting Station
Clear Clear  
Wind Chill: 69°   Ceiling: Unl
Heat Index: 69°   Visibility: 10mi
Dew Point: 55°   Wind: 3mph
Humidity: 60%   Direction: 140°SE
Pressure: 30.08"   Gusts: NA
Location:  32.54°N, 81.93°W
Report Text: KJYL 241515Z AUTO 14003KT 10SM CLR 21/13 A3008 RMK AO2 T02050125
Loading
Personal Weather Stations






























Interactive Weather Map
Tropical Storm Tracking
New forecast layout! Learn more

10-Day Weather Forecast

Advertisements
Track Severe Weather on mobile